Time;durP1;ratioP1;P1;durP2;ratioP2;P2;SDS_P1;SDS_P2;PMS_P1;PMS_P2;Temp;Humidity;BMP_temperature;BMP_pressure;BME280_temperature;BME280_humidity;BME280_pressure;Samples;Min_cycle;Max_cycle;Signal;HPM_P1;HPM_P2
2023/01/10 00:01:58;;;;;;;1.50;1.23;;;;;;;;;;5093889;28;20453;-72
2023/01/10 00:04:27;;;;;;;1.60;1.17;;;;;;;;;;5093669;28;20450;-72
2023/01/10 00:06:56;;;;;;;2.00;1.47;;;;;;;;;;5092915;28;20455;-72
2023/01/10 00:09:23;;;;;;;2.13;1.37;;;;;;;;;;5093939;28;20482;-72
2023/01/10 00:14:34;;;;;;;2.60;1.60;;;;;;;;;;5093364;28;20427;-72
2023/01/10 00:17:02;;;;;;;1.50;1.33;;;;;;;;;;5093665;28;20940;-72
2023/01/10 00:19:29;;;;;;;2.03;1.30;;;;;;;;;;5093728;28;20939;-72
2023/01/10 00:22:01;;;;;;;1.73;1.40;;;;;;;;;;5093620;28;20458;-72
2023/01/10 00:24:28;;;;;;;2.73;1.43;;;;;;;;;;5093256;28;20451;-73
2023/01/10 00:26:55;;;;;;;2.80;1.20;;;;;;;;;;5093687;28;20450;-73
2023/01/10 00:29:24;;;;;;;2.40;1.40;;;;;;;;;;5091818;28;20494;-72
2023/01/10 00:31:51;;;;;;;1.70;1.50;;;;;;;;;;5093159;28;20450;-72
2023/01/10 00:34:18;;;;;;;1.97;1.53;;;;;;;;;;5093085;28;20454;-72
2023/01/10 00:36:46;;;;;;;2.20;1.80;;;;;;;;;;5093408;28;20462;-72
2023/01/10 00:39:15;;;;;;;2.10;1.57;;;;;;;;;;5092289;28;20510;-72
2023/01/10 00:44:27;;;;;;;2.27;1.73;;;;;;;;;;5092622;28;20568;-72
2023/01/10 00:46:54;;;;;;;1.80;1.43;;;;;;;;;;5093304;28;20970;-72
2023/01/10 00:49:21;;;;;;;2.87;2.00;;;;;;;;;;5093058;28;20494;-72
2023/01/10 00:51:48;;;;;;;1.80;1.50;;;;;;;;;;5093011;28;20454;-72
2023/01/10 00:54:16;;;;;;;2.00;1.60;;;;;;;;;;5092785;28;20864;-72
2023/01/10 00:56:43;;;;;;;2.17;1.30;;;;;;;;;;5093073;28;20459;-72
2023/01/10 00:59:11;;;;;;;1.63;1.40;;;;;;;;;;5092989;28;20473;-72
2023/01/10 01:01:38;;;;;;;2.10;1.60;;;;;;;;;;5093182;28;20447;-72
2023/01/10 01:04:05;;;;;;;1.67;1.40;;;;;;;;;;5092540;28;20499;-72
2023/01/10 01:06:32;;;;;;;2.73;1.73;;;;;;;;;;5092122;28;20461;-72
2023/01/10 01:08:59;;;;;;;1.50;1.30;;;;;;;;;;5092633;28;20490;-72
2023/01/10 01:11:27;;;;;;;2.00;1.37;;;;;;;;;;5093147;28;20443;-72
2023/01/10 01:13:54;;;;;;;2.10;1.80;;;;;;;;;;5092647;28;20454;-72
2023/01/10 01:16:22;;;;;;;2.03;1.63;;;;;;;;;;5092948;28;20455;-72
2023/01/10 01:18:49;;;;;;;2.47;1.70;;;;;;;;;;5092604;28;20469;-72
2023/01/10 01:21:16;;;;;;;1.70;1.50;;;;;;;;;;5092911;28;20947;-72
2023/01/10 01:23:43;;;;;;;2.00;1.60;;;;;;;;;;5092594;28;20457;-72
2023/01/10 01:26:10;;;;;;;1.80;1.40;;;;;;;;;;5092807;28;20439;-72
2023/01/10 01:28:39;;;;;;;2.00;1.80;;;;;;;;;;5092534;28;20516;-72
2023/01/10 01:31:09;;;;;;;2.20;1.80;;;;;;;;;;5090655;28;20953;-72
2023/01/10 01:33:36;;;;;;;2.33;2.13;;;;;;;;;;5092335;28;20446;-72
2023/01/10 01:36:08;;;;;;;2.30;1.77;;;;;;;;;;5092651;28;20465;-72
2023/01/10 01:38:35;;;;;;;2.13;1.70;;;;;;;;;;5092465;28;20516;-72
2023/01/10 01:41:02;;;;;;;2.37;1.80;;;;;;;;;;5092715;28;20779;-72
2023/01/10 01:43:30;;;;;;;2.97;1.87;;;;;;;;;;5092340;28;20466;-72
2023/01/10 01:46:01;;;;;;;2.10;1.90;;;;;;;;;;5092366;28;20451;-72
2023/01/10 01:48:32;;;;;;;1.77;1.50;;;;;;;;;;5092542;28;20498;-72
2023/01/10 01:51:04;;;;;;;2.80;1.93;;;;;;;;;;5093889;28;20446;-72
2023/01/10 01:53:34;;;;;;;2.33;2.13;;;;;;;;;;5096407;28;20454;-72
2023/01/10 01:56:03;;;;;;;3.00;1.70;;;;;;;;;;5096394;28;20460;-72
2023/01/10 01:58:33;;;;;;;3.37;1.60;;;;;;;;;;5096339;28;20835;-72
2023/01/10 02:01:01;;;;;;;2.60;2.10;;;;;;;;;;5096963;28;20435;-72
2023/01/10 02:03:29;;;;;;;2.30;2.00;;;;;;;;;;5096099;28;20451;-72
2023/01/10 02:05:56;;;;;;;2.73;1.67;;;;;;;;;;5096128;28;20825;-72
2023/01/10 02:08:23;;;;;;;3.40;2.47;;;;;;;;;;5096651;28;20492;-72
2023/01/10 02:10:53;;;;;;;2.50;1.93;;;;;;;;;;5096011;28;20447;-72
2023/01/10 02:13:22;;;;;;;3.00;2.13;;;;;;;;;;5096678;28;20442;-72
2023/01/10 02:15:49;;;;;;;2.30;1.50;;;;;;;;;;5095822;28;20450;-72
2023/01/10 02:18:19;;;;;;;2.13;1.70;;;;;;;;;;5096150;28;20471;-72
2023/01/10 02:20:52;;;;;;;2.20;2.00;;;;;;;;;;5095915;28;20935;-72
2023/01/10 02:23:27;;;;;;;1.73;1.50;;;;;;;;;;5095970;28;20906;-72
2023/01/10 02:26:13;;;;;;;2.53;2.00;;;;;;;;;;5095959;28;20472;-72
2023/01/10 02:28:52;;;;;;;2.20;2.00;;;;;;;;;;5095796;28;20982;-72
2023/01/10 02:31:35;;;;;;;2.10;1.50;;;;;;;;;;5094181;28;20897;-72
2023/01/10 02:34:07;;;;;;;2.00;1.67;;;;;;;;;;5095238;28;20473;-72
2023/01/10 02:36:37;;;;;;;2.20;2.00;;;;;;;;;;5095867;28;20862;-72
2023/01/10 02:39:08;;;;;;;2.50;1.80;;;;;;;;;;5095678;28;20821;-72
2023/01/10 02:41:38;;;;;;;3.07;2.07;;;;;;;;;;5095727;28;20489;-72
2023/01/10 02:44:08;;;;;;;6.50;2.30;;;;;;;;;;5094929;28;20466;-72
2023/01/10 02:46:37;;;;;;;2.80;2.10;;;;;;;;;;5095465;28;20455;-72
2023/01/10 02:49:06;;;;;;;2.10;1.70;;;;;;;;;;5095194;28;20493;-72
2023/01/10 02:51:33;;;;;;;2.53;1.87;;;;;;;;;;5095729;28;20446;-72
2023/01/10 02:54:02;;;;;;;2.90;1.90;;;;;;;;;;5094918;28;20465;-72
2023/01/10 02:56:37;;;;;;;2.97;2.03;;;;;;;;;;5095638;28;20819;-72
2023/01/10 02:59:16;;;;;;;4.60;2.57;;;;;;;;;;5095175;28;20462;-72
2023/01/10 03:01:48;;;;;;;3.10;2.00;;;;;;;;;;5094834;28;20805;-72
2023/01/10 03:04:20;;;;;;;2.10;1.70;;;;;;;;;;5094471;28;20450;-72
2023/01/10 03:06:52;;;;;;;1.90;1.60;;;;;;;;;;5095246;28;20449;-72
2023/01/10 03:09:23;;;;;;;2.30;1.80;;;;;;;;;;5094870;28;20486;-72
2023/01/10 03:11:52;;;;;;;2.90;2.03;;;;;;;;;;5094949;28;20455;-71
2023/01/10 03:14:20;;;;;;;2.93;2.30;;;;;;;;;;5094455;28;20461;-72
2023/01/10 03:16:50;;;;;;;3.10;1.93;;;;;;;;;;5094812;28;20455;-72
2023/01/10 03:19:20;;;;;;;3.23;2.60;;;;;;;;;;5094978;28;20466;-72
2023/01/10 03:21:48;;;;;;;3.87;2.20;;;;;;;;;;5094740;28;20450;-72
2023/01/10 03:24:18;;;;;;;2.20;1.90;;;;;;;;;;5094465;28;20458;-72
2023/01/10 03:26:48;;;;;;;3.70;2.80;;;;;;;;;;5094874;28;20449;-72
2023/01/10 03:29:19;;;;;;;4.00;2.17;;;;;;;;;;5094813;28;20671;-72
2023/01/10 03:31:48;;;;;;;3.17;2.10;;;;;;;;;;5093899;28;20451;-72
2023/01/10 03:34:15;;;;;;;2.67;2.10;;;;;;;;;;5093924;28;20512;-72
2023/01/10 03:36:48;;;;;;;2.63;1.80;;;;;;;;;;5094527;28;20451;-72
2023/01/10 03:39:18;;;;;;;4.03;2.63;;;;;;;;;;5094901;28;20466;-72
2023/01/10 03:41:49;;;;;;;3.10;2.50;;;;;;;;;;5089616;28;20479;-72
2023/01/10 03:47:06;;;;;;;3.60;2.50;;;;;;;;;;5093745;28;20532;-72
2023/01/10 03:49:34;;;;;;;3.97;2.30;;;;;;;;;;5093878;28;20490;-72
2023/01/10 03:52:02;;;;;;;3.73;2.73;;;;;;;;;;5093953;28;20455;-72
2023/01/10 03:54:29;;;;;;;3.30;2.43;;;;;;;;;;5092900;28;20458;-72
2023/01/10 03:56:56;;;;;;;3.17;2.20;;;;;;;;;;5093794;28;20447;-72
2023/01/10 03:59:25;;;;;;;2.80;2.30;;;;;;;;;;5093664;28;20485;-73
2023/01/10 04:01:52;;;;;;;6.67;2.60;;;;;;;;;;5093718;28;20958;-72
2023/01/10 04:04:19;;;;;;;3.50;2.70;;;;;;;;;;5093540;28;20455;-72
2023/01/10 04:06:46;;;;;;;4.13;3.77;;;;;;;;;;5093570;28;20454;-72
2023/01/10 04:09:15;;;;;;;3.97;2.90;;;;;;;;;;5093666;28;20856;-72
2023/01/10 04:11:42;;;;;;;4.00;2.63;;;;;;;;;;5092788;28;20834;-73
2023/01/10 04:14:09;;;;;;;5.20;4.10;;;;;;;;;;5092011;28;20453;-72
2023/01/10 04:16:36;;;;;;;4.10;3.37;;;;;;;;;;5093944;28;20216;-72
2023/01/10 04:19:03;;;;;;;3.73;2.97;;;;;;;;;;5093759;28;20478;-72
2023/01/10 04:21:30;;;;;;;3.47;2.87;;;;;;;;;;5093791;28;20451;-72
2023/01/10 04:23:57;;;;;;;4.37;2.90;;;;;;;;;;5093010;28;20951;-72
2023/01/10 04:26:26;;;;;;;3.10;2.20;;;;;;;;;;5093707;28;20447;-72
2023/01/10 04:28:53;;;;;;;3.63;2.20;;;;;;;;;;5093278;28;20987;-72
2023/01/10 04:31:21;;;;;;;4.33;2.30;;;;;;;;;;5092093;28;20451;-72
2023/01/10 04:33:48;;;;;;;3.47;2.93;;;;;;;;;;5093037;28;20482;-72
2023/01/10 04:36:15;;;;;;;2.33;2.13;;;;;;;;;;5093441;28;20818;-72
2023/01/10 04:38:42;;;;;;;5.17;3.37;;;;;;;;;;5093191;28;20471;-72
2023/01/10 04:41:10;;;;;;;3.30;2.40;;;;;;;;;;5093316;28;20455;-72
2023/01/10 04:43:38;;;;;;;6.27;3.20;;;;;;;;;;5092878;28;20451;-72
2023/01/10 04:46:05;;;;;;;4.40;2.83;;;;;;;;;;5093044;28;20868;-73
2023/01/10 04:48:32;;;;;;;5.30;2.90;;;;;;;;;;5093262;28;20470;-72
2023/01/10 04:50:59;;;;;;;2.87;2.57;;;;;;;;;;5093043;28;20898;-72
2023/01/10 04:53:26;;;;;;;7.33;3.93;;;;;;;;;;5092927;28;20466;-72
2023/01/10 04:55:53;;;;;;;2.70;2.40;;;;;;;;;;5093123;28;20455;-72
2023/01/10 04:58:21;;;;;;;3.00;2.47;;;;;;;;;;5093204;28;20478;-72
2023/01/10 05:00:51;;;;;;;14.53;2.70;;;;;;;;;;5093121;28;20446;-72
2023/01/10 05:03:19;;;;;;;4.60;3.20;;;;;;;;;;5093099;28;20463;-72
2023/01/10 05:05:46;;;;;;;3.47;2.87;;;;;;;;;;5092464;28;20482;-72
2023/01/10 05:08:13;;;;;;;6.10;2.47;;;;;;;;;;5092895;28;20994;-72
2023/01/10 05:10:40;;;;;;;5.87;4.20;;;;;;;;;;5092951;28;20861;-72
2023/01/10 05:13:07;;;;;;;3.10;2.80;;;;;;;;;;5093184;28;20791;-72
2023/01/10 05:15:34;;;;;;;3.07;2.77;;;;;;;;;;5092652;28;20446;-72
2023/01/10 05:18:03;;;;;;;3.30;2.97;;;;;;;;;;5092851;28;20478;-72
2023/01/10 05:20:30;;;;;;;3.30;2.57;;;;;;;;;;5092769;28;20453;-72
2023/01/10 05:22:57;;;;;;;5.00;3.00;;;;;;;;;;5092732;28;20454;-72
2023/01/10 05:25:24;;;;;;;4.47;2.60;;;;;;;;;;5092939;28;20458;-72
2023/01/10 05:27:51;;;;;;;5.40;3.30;;;;;;;;;;5097151;28;20453;-72
2023/01/10 05:30:18;;;;;;;5.50;4.00;;;;;;;;;;5095242;28;20547;-72
2023/01/10 05:32:46;;;;;;;3.97;3.40;;;;;;;;;;5097024;28;20446;-72
2023/01/10 05:35:14;;;;;;;4.53;2.70;;;;;;;;;;5096704;28;20458;-72
2023/01/10 05:37:41;;;;;;;6.10;3.40;;;;;;;;;;5096848;28;20453;-72
2023/01/10 05:40:09;;;;;;;6.27;3.63;;;;;;;;;;5096715;28;20457;-72
2023/01/10 05:42:36;;;;;;;5.93;4.57;;;;;;;;;;5095507;28;20826;-72
2023/01/10 05:45:04;;;;;;;4.37;3.73;;;;;;;;;;5096396;28;20827;-72
2023/01/10 05:47:31;;;;;;;4.50;2.97;;;;;;;;;;5096732;28;20449;-72
2023/01/10 05:49:58;;;;;;;4.40;3.03;;;;;;;;;;5096479;28;20536;-72
2023/01/10 05:52:26;;;;;;;3.80;3.10;;;;;;;;;;5093700;28;20981;-72
2023/01/10 05:54:53;;;;;;;3.60;3.00;;;;;;;;;;5095425;28;20841;-72
2023/01/10 05:57:23;;;;;;;4.03;3.60;;;;;;;;;;5096559;28;20820;-72
2023/01/10 05:59:50;;;;;;;4.10;2.60;;;;;;;;;;5096003;28;20478;-72
2023/01/10 06:02:17;;;;;;;7.13;5.67;;;;;;;;;;5095941;28;20970;-72
2023/01/10 06:04:44;;;;;;;4.10;3.70;;;;;;;;;;5095013;28;20462;-72
2023/01/10 06:07:11;;;;;;;5.80;4.33;;;;;;;;;;5095958;28;20459;-72
2023/01/10 06:09:40;;;;;;;5.73;3.63;;;;;;;;;;5096003;28;20490;-72
2023/01/10 06:12:07;;;;;;;4.93;3.80;;;;;;;;;;5095958;28;20455;-72
2023/01/10 06:14:34;;;;;;;4.13;2.90;;;;;;;;;;5095264;28;20446;-72
2023/01/10 06:17:01;;;;;;;4.97;2.90;;;;;;;;;;5095495;28;20463;-72
2023/01/10 06:19:28;;;;;;;5.60;2.80;;;;;;;;;;5095876;28;20486;-72
2023/01/10 06:21:55;;;;;;;3.87;3.03;;;;;;;;;;5095738;28;20457;-72
2023/01/10 06:24:22;;;;;;;4.63;3.17;;;;;;;;;;5095213;28;20450;-72
2023/01/10 06:26:50;;;;;;;4.17;3.20;;;;;;;;;;5095343;28;20454;-72
2023/01/10 06:29:18;;;;;;;4.07;3.67;;;;;;;;;;5094981;28;20892;-72
2023/01/10 06:31:45;;;;;;;5.67;3.63;;;;;;;;;;5094477;28;20438;-72
2023/01/10 06:34:12;;;;;;;3.50;3.20;;;;;;;;;;5095186;28;20442;-72
2023/01/10 06:36:39;;;;;;;4.63;3.87;;;;;;;;;;5095513;28;20450;-72
2023/01/10 06:39:06;;;;;;;4.00;3.10;;;;;;;;;;5094245;28;20471;-72
2023/01/10 06:41:33;;;;;;;4.63;2.67;;;;;;;;;;5095683;28;20442;-72
2023/01/10 06:44:01;;;;;;;4.03;3.63;;;;;;;;;;5094571;28;20865;-72
2023/01/10 06:46:28;;;;;;;8.03;5.97;;;;;;;;;;5095586;28;20451;-72
2023/01/10 06:48:56;;;;;;;5.30;3.27;;;;;;;;;;5085859;28;20466;-72
2023/01/10 06:51:23;;;;;;;3.37;2.93;;;;;;;;;;5090170;28;21036;-72
2023/01/10 06:53:50;;;;;;;4.63;3.40;;;;;;;;;;5092954;28;20454;-72
2023/01/10 06:56:17;;;;;;;4.40;3.60;;;;;;;;;;5093351;28;20457;-72
2023/01/10 06:58:44;;;;;;;3.73;3.20;;;;;;;;;;5093306;28;20481;-72
2023/01/10 07:01:15;;;;;;;4.20;3.70;;;;;;;;;;5092716;28;20451;-72
2023/01/10 07:03:42;;;;;;;4.77;3.23;;;;;;;;;;5093079;28;20458;-72
2023/01/10 07:06:09;;;;;;;3.30;3.00;;;;;;;;;;5093523;28;20869;-72
2023/01/10 07:08:37;;;;;;;5.30;4.40;;;;;;;;;;5074893;28;20606;-72
2023/01/10 07:11:04;;;;;;;3.90;3.53;;;;;;;;;;5073003;28;20488;-72
2023/01/10 07:13:31;;;;;;;5.33;4.03;;;;;;;;;;5072447;28;20833;-72
2023/01/10 07:16:02;;;;;;;5.43;2.80;;;;;;;;;;5073371;28;20459;-72
2023/01/10 07:18:30;;;;;;;3.83;3.00;;;;;;;;;;5073262;28;21000;-72
2023/01/10 07:20:57;;;;;;;3.50;3.10;;;;;;;;;;5072194;28;20944;-72
2023/01/10 07:23:24;;;;;;;5.47;3.90;;;;;;;;;;5072534;28;20456;-72
2023/01/10 07:25:52;;;;;;;3.10;2.80;;;;;;;;;;5072246;28;20456;-72
2023/01/10 07:28:19;;;;;;;4.80;3.63;;;;;;;;;;5072540;28;20476;-72
2023/01/10 07:30:46;;;;;;;4.10;3.43;;;;;;;;;;5071628;28;20483;-74
2023/01/10 07:33:13;;;;;;;4.53;3.30;;;;;;;;;;5085519;28;20486;-72
2023/01/10 07:35:42;;;;;;;4.47;3.53;;;;;;;;;;5091955;28;20966;-72
2023/01/10 07:38:09;;;;;;;4.57;2.83;;;;;;;;;;5092881;28;20505;-72
2023/01/10 07:40:36;;;;;;;4.93;3.87;;;;;;;;;;5093117;28;20454;-72
2023/01/10 07:43:03;;;;;;;3.83;2.90;;;;;;;;;;5092337;28;20473;-72
2023/01/10 07:45:31;;;;;;;3.07;2.60;;;;;;;;;;5092598;28;20458;-73
2023/01/10 07:47:58;;;;;;;15.50;3.10;;;;;;;;;;5092294;28;20969;-72
2023/01/10 07:50:25;;;;;;;6.57;4.23;;;;;;;;;;5092267;28;21005;-72
2023/01/10 07:52:54;;;;;;;4.43;3.40;;;;;;;;;;5092568;28;20462;-72
2023/01/10 07:55:21;;;;;;;4.50;3.50;;;;;;;;;;5092358;28;20463;-72
2023/01/10 07:57:50;;;;;;;3.40;3.10;;;;;;;;;;5092016;28;20455;-72
2023/01/10 08:00:18;;;;;;;4.40;2.90;;;;;;;;;;5092406;28;20447;-71
2023/01/10 08:02:45;;;;;;;4.00;3.00;;;;;;;;;;5092216;28;20446;-72
2023/01/10 08:05:13;;;;;;;4.07;3.63;;;;;;;;;;5091396;28;20474;-71
2023/01/10 08:07:40;;;;;;;4.23;3.50;;;;;;;;;;5092400;28;20491;-71
2023/01/10 08:10:09;;;;;;;6.47;3.87;;;;;;;;;;5092229;28;21045;-71
2023/01/10 08:12:36;;;;;;;4.57;4.17;;;;;;;;;;5091802;28;20454;-72
2023/01/10 08:15:03;;;;;;;10.90;5.23;;;;;;;;;;5092036;28;20923;-72
2023/01/10 08:17:33;;;;;;;4.50;3.70;;;;;;;;;;5092323;28;20458;-72
2023/01/10 08:20:00;;;;;;;8.17;5.60;;;;;;;;;;5091774;28;20800;-72
2023/01/10 08:22:27;;;;;;;5.90;4.10;;;;;;;;;;5092215;28;20447;-71
2023/01/10 08:24:54;;;;;;;7.00;4.83;;;;;;;;;;5091421;28;20454;-72
2023/01/10 08:27:23;;;;;;;7.70;5.30;;;;;;;;;;5091759;28;20466;-73
2023/01/10 08:29:50;;;;;;;6.00;5.10;;;;;;;;;;5089929;28;20467;-72
2023/01/10 08:32:17;;;;;;;7.33;5.37;;;;;;;;;;5091994;28;20446;-72
2023/01/10 08:34:44;;;;;;;8.27;5.83;;;;;;;;;;5090951;28;20959;-72
2023/01/10 08:37:13;;;;;;;5.93;4.63;;;;;;;;;;5091763;28;20448;-72
2023/01/10 08:39:40;;;;;;;7.00;5.23;;;;;;;;;;5091619;28;20979;-71
2023/01/10 08:42:07;;;;;;;3.90;3.43;;;;;;;;;;5091516;28;20458;-72
2023/01/10 08:44:36;;;;;;;11.07;7.03;;;;;;;;;;5091465;28;20873;-72
2023/01/10 08:47:03;;;;;;;7.87;5.50;;;;;;;;;;5091321;28;20835;-72
2023/01/10 08:49:30;;;;;;;7.47;5.40;;;;;;;;;;5091122;28;20462;-72
2023/01/10 08:51:57;;;;;;;6.47;5.13;;;;;;;;;;5091975;28;20490;-72
2023/01/10 08:54:24;;;;;;;6.27;5.10;;;;;;;;;;5091615;28;20446;-72
2023/01/10 08:56:51;;;;;;;7.70;5.90;;;;;;;;;;5091094;28;20451;-72
2023/01/10 08:59:18;;;;;;;7.40;5.10;;;;;;;;;;5091240;28;20478;-72
2023/01/10 09:01:47;;;;;;;9.47;6.47;;;;;;;;;;5089345;28;20458;-72
2023/01/10 09:04:14;;;;;;;8.20;6.07;;;;;;;;;;5090295;28;20458;-72
2023/01/10 09:06:41;;;;;;;7.53;6.00;;;;;;;;;;5091686;28;20454;-72
2023/01/10 09:09:08;;;;;;;6.70;4.90;;;;;;;;;;5090074;28;20478;-72
2023/01/10 09:11:35;;;;;;;6.30;5.47;;;;;;;;;;5090809;28;20920;-72
2023/01/10 09:14:02;;;;;;;8.53;5.10;;;;;;;;;;5090378;28;20832;-72
2023/01/10 09:16:29;;;;;;;7.63;5.67;;;;;;;;;;5091020;28;20458;-72
2023/01/10 09:18:58;;;;;;;7.80;5.27;;;;;;;;;;5090529;28;20473;-72
2023/01/10 09:21:25;;;;;;;6.13;4.90;;;;;;;;;;5079818;28;20444;-72
2023/01/10 09:23:52;;;;;;;5.87;5.07;;;;;;;;;;5086616;28;20823;-72
2023/01/10 09:26:19;;;;;;;7.07;5.33;;;;;;;;;;5091071;28;20482;-72
2023/01/10 09:28:47;;;;;;;9.20;5.30;;;;;;;;;;5091202;28;20478;-72
2023/01/10 09:31:15;;;;;;;9.97;6.30;;;;;;;;;;5071964;28;20480;-72
2023/01/10 09:33:43;;;;;;;8.73;4.83;;;;;;;;;;5070411;28;20447;-72
2023/01/10 09:36:12;;;;;;;7.97;5.70;;;;;;;;;;5075891;28;20498;-72
2023/01/10 09:38:39;;;;;;;7.10;5.50;;;;;;;;;;5071078;28;20471;-68
2023/01/10 09:41:14;;;;;;;7.60;5.73;;;;;;;;;;5071585;28;20562;-68
2023/01/10 09:43:47;;;;;;;4.83;4.20;;;;;;;;;;5070468;28;20964;-72
2023/01/10 09:46:16;;;;;;;5.07;4.57;;;;;;;;;;5071192;28;20456;-72
2023/01/10 09:48:47;;;;;;;7.63;5.73;;;;;;;;;;5070441;28;20475;-72
2023/01/10 09:51:25;;;;;;;5.27;4.63;;;;;;;;;;5070740;28;20488;-72
2023/01/10 09:53:56;;;;;;;6.17;5.40;;;;;;;;;;5070302;28;20455;-72
2023/01/10 09:56:23;;;;;;;8.23;5.50;;;;;;;;;;5070579;28;20452;-72
2023/01/10 09:58:50;;;;;;;8.33;4.70;;;;;;;;;;5070692;28;20486;-72
2023/01/10 10:01:19;;;;;;;8.67;7.20;;;;;;;;;;5070737;28;20443;-72
2023/01/10 10:03:49;;;;;;;5.20;4.33;;;;;;;;;;5072626;28;20459;-72
2023/01/10 10:06:16;;;;;;;4.83;4.13;;;;;;;;;;5090951;28;20947;-72
2023/01/10 10:08:46;;;;;;;6.60;5.17;;;;;;;;;;5081558;28;20489;-72
2023/01/10 10:11:26;;;;;;;13.80;9.60;;;;;;;;;;5072833;28;20483;-72
2023/01/10 10:13:58;;;;;;;6.10;4.37;;;;;;;;;;5073662;28;20821;-72
2023/01/10 10:16:31;;;;;;;4.40;3.67;;;;;;;;;;5074267;28;20448;-72
2023/01/10 10:19:03;;;;;;;5.17;3.67;;;;;;;;;;5080697;28;20477;-72
2023/01/10 10:21:37;;;;;;;5.90;3.07;;;;;;;;;;5094485;28;20455;-71
2023/01/10 10:24:13;;;;;;;3.40;2.87;;;;;;;;;;5094026;28;20963;-72
2023/01/10 10:26:44;;;;;;;7.17;5.30;;;;;;;;;;5095694;28;20474;-72
2023/01/10 10:29:20;;;;;;;6.67;3.63;;;;;;;;;;5095594;28;20839;-72
2023/01/10 10:32:05;;;;;;;5.23;3.23;;;;;;;;;;5095050;28;20485;-69
2023/01/10 10:34:36;;;;;;;6.80;3.13;;;;;;;;;;5082344;28;20462;-70
2023/01/10 10:37:05;;;;;;;4.73;4.07;;;;;;;;;;5094200;28;20450;-70
2023/01/10 10:39:37;;;;;;;4.33;3.07;;;;;;;;;;5094158;28;20481;-70
2023/01/10 10:42:05;;;;;;;5.00;2.73;;;;;;;;;;5094713;28;20842;-70
2023/01/10 10:44:34;;;;;;;7.50;3.00;;;;;;;;;;5093993;28;20481;-70
2023/01/10 10:47:01;;;;;;;5.67;3.27;;;;;;;;;;5094075;28;20446;-70
2023/01/10 10:49:33;;;;;;;4.20;3.30;;;;;;;;;;5093968;28;20971;-70
2023/01/10 10:52:03;;;;;;;7.10;3.20;;;;;;;;;;5093863;28;21061;-70
2023/01/10 10:54:30;;;;;;;3.37;2.80;;;;;;;;;;5094043;28;20681;-71
2023/01/10 10:56:59;;;;;;;2.93;2.63;;;;;;;;;;5093958;28;20795;-70
2023/01/10 10:59:26;;;;;;;5.43;2.43;;;;;;;;;;5094037;28;20482;-70
2023/01/10 11:01:53;;;;;;;2.80;2.50;;;;;;;;;;5093916;28;20447;-70
2023/01/10 11:04:21;;;;;;;5.17;3.43;;;;;;;;;;5094307;28;20459;-70
2023/01/10 11:06:48;;;;;;;3.37;2.90;;;;;;;;;;5094934;28;20457;-70
2023/01/10 11:09:17;;;;;;;4.80;2.60;;;;;;;;;;5095006;28;20560;-70
2023/01/10 11:11:45;;;;;;;6.20;3.23;;;;;;;;;;5094983;28;20540;-70
2023/01/10 11:14:14;;;;;;;5.77;2.77;;;;;;;;;;5094916;28;20447;-70
2023/01/10 11:16:43;;;;;;;3.77;2.30;;;;;;;;;;5095266;28;20458;-70
2023/01/10 11:19:12;;;;;;;3.20;2.70;;;;;;;;;;5095212;28;20883;-70
2023/01/10 11:21:40;;;;;;;3.83;2.37;;;;;;;;;;5094896;28;20451;-70
2023/01/10 11:24:19;;;;;;;3.20;2.70;;;;;;;;;;5093922;28;20479;-70
2023/01/10 11:26:46;;;;;;;2.50;2.23;;;;;;;;;;5094866;28;20447;-70
2023/01/10 11:29:24;;;;;;;3.80;2.40;;;;;;;;;;5094887;28;20978;-71
2023/01/10 11:31:53;;;;;;;4.73;3.03;;;;;;;;;;5094440;28;20486;-70
2023/01/10 11:34:23;;;;;;;5.47;2.80;;;;;;;;;;5094869;28;20911;-70
2023/01/10 11:36:54;;;;;;;4.90;3.47;;;;;;;;;;5094761;28;20457;-70
2023/01/10 11:39:21;;;;;;;4.57;2.13;;;;;;;;;;5094744;28;21006;-70
2023/01/10 11:41:51;;;;;;;4.07;2.70;;;;;;;;;;5094605;28;20477;-70
2023/01/10 11:44:21;;;;;;;5.80;2.97;;;;;;;;;;5094569;28;20470;-69
2023/01/10 11:46:50;;;;;;;4.00;2.63;;;;;;;;;;5094606;28;20818;-70
2023/01/10 11:49:22;;;;;;;4.70;2.70;;;;;;;;;;5094782;28;20470;-70
2023/01/10 11:51:50;;;;;;;7.20;3.13;;;;;;;;;;5094409;28;21025;-70
2023/01/10 11:54:20;;;;;;;3.63;2.50;;;;;;;;;;5093935;28;20911;-70
2023/01/10 11:56:51;;;;;;;3.50;2.50;;;;;;;;;;5094146;28;20454;-70
2023/01/10 11:59:19;;;;;;;7.30;3.93;;;;;;;;;;5094578;28;20478;-70
2023/01/10 12:01:48;;;;;;;3.70;2.77;;;;;;;;;;5094141;28;20449;-71
2023/01/10 12:04:16;;;;;;;7.27;2.77;;;;;;;;;;5093695;28;20451;-71
2023/01/10 12:06:44;;;;;;;4.37;2.40;;;;;;;;;;5093924;28;20454;-70
2023/01/10 12:09:26;;;;;;;3.50;2.40;;;;;;;;;;5093980;28;20927;-70
2023/01/10 12:12:01;;;;;;;3.30;2.40;;;;;;;;;;5093645;28;20482;-70
2023/01/10 12:14:28;;;;;;;4.20;2.53;;;;;;;;;;5093666;28;20939;-70
2023/01/10 12:16:59;;;;;;;5.63;2.43;;;;;;;;;;5093882;28;20851;-71
2023/01/10 12:19:28;;;;;;;8.87;3.00;;;;;;;;;;5093613;28;20479;-70
2023/01/10 12:21:56;;;;;;;4.37;2.17;;;;;;;;;;5093915;28;20482;-70
2023/01/10 12:24:25;;;;;;;3.20;2.03;;;;;;;;;;5093575;28;20833;-70
2023/01/10 12:26:52;;;;;;;3.70;2.00;;;;;;;;;;5093701;28;20453;-70
2023/01/10 12:29:22;;;;;;;6.20;2.73;;;;;;;;;;5092923;28;20462;-73
2023/01/10 12:31:50;;;;;;;7.80;2.03;;;;;;;;;;5093040;28;20489;-70
2023/01/10 12:34:19;;;;;;;6.40;2.20;;;;;;;;;;5084985;28;20451;-70
2023/01/10 12:36:59;;;;;;;7.23;2.03;;;;;;;;;;5073189;28;20451;-70
2023/01/10 12:39:29;;;;;;;4.23;2.20;;;;;;;;;;5072917;28;20471;-70
2023/01/10 12:44:47;;;;;;;2.50;1.80;;;;;;;;;;5072819;28;20791;-70
2023/01/10 12:47:25;;;;;;;4.47;2.47;;;;;;;;;;5073229;28;20443;-70
2023/01/10 12:49:56;;;;;;;3.17;2.10;;;;;;;;;;5073246;28;20468;-70
2023/01/10 12:52:30;;;;;;;3.03;1.97;;;;;;;;;;5072976;28;20486;-70
2023/01/10 12:54:57;;;;;;;2.90;2.00;;;;;;;;;;5072581;28;20454;-70
2023/01/10 12:57:27;;;;;;;6.93;3.40;;;;;;;;;;5073319;28;20458;-69
2023/01/10 12:59:55;;;;;;;7.20;2.93;;;;;;;;;;5072623;28;20478;-69
2023/01/10 13:02:24;;;;;;;4.00;2.07;;;;;;;;;;5072635;28;20447;-69
2023/01/10 13:04:53;;;;;;;7.90;2.30;;;;;;;;;;5072469;28;20956;-70
2023/01/10 13:07:21;;;;;;;5.47;2.17;;;;;;;;;;5072657;28;20455;-71
2023/01/10 13:09:50;;;;;;;3.80;2.23;;;;;;;;;;5072749;28;20479;-71
2023/01/10 13:12:21;;;;;;;6.77;1.83;;;;;;;;;;5072638;28;21008;-70
2023/01/10 13:14:51;;;;;;;8.73;3.33;;;;;;;;;;5072421;28;20455;-70
2023/01/10 13:17:26;;;;;;;9.27;2.00;;;;;;;;;;5072650;28;20452;-72
2023/01/10 13:20:08;;;;;;;6.27;2.13;;;;;;;;;;5072538;28;20474;-70
2023/01/10 13:22:35;;;;;;;3.77;1.63;;;;;;;;;;5072256;28;20448;-70
2023/01/10 13:25:04;;;;;;;3.90;1.80;;;;;;;;;;5072358;28;20440;-70
2023/01/10 13:27:33;;;;;;;6.83;2.43;;;;;;;;;;5072623;28;20497;-69
2023/01/10 13:30:00;;;;;;;6.33;1.77;;;;;;;;;;5071215;28;20462;-70
2023/01/10 13:32:29;;;;;;;2.90;1.57;;;;;;;;;;5072621;28;20483;-70
2023/01/10 13:35:10;;;;;;;2.17;1.70;;;;;;;;;;5072072;28;20447;-70
2023/01/10 13:37:38;;;;;;;3.57;1.97;;;;;;;;;;5072507;28;20448;-70
2023/01/10 13:40:07;;;;;;;3.70;1.70;;;;;;;;;;5072392;28;20460;-70
2023/01/10 13:45:24;;;;;;;5.77;2.50;;;;;;;;;;5073810;28;20477;-71
2023/01/10 13:48:02;;;;;;;5.30;2.10;;;;;;;;;;5092721;28;20450;-71
2023/01/10 13:50:48;;;;;;;8.03;2.90;;;;;;;;;;5082379;28;20908;-70
2023/01/10 13:53:30;;;;;;;10.23;4.13;;;;;;;;;;5086141;28;20525;-70
2023/01/10 13:55:58;;;;;;;3.93;2.30;;;;;;;;;;5084071;28;20438;-70
2023/01/10 14:04:08;;;;;;;11.37;3.00;;;;;;;;;;5042066;28;20919;-70
2023/01/10 14:06:39;;;;;;;8.20;2.73;;;;;;;;;;5075986;28;20547;-70
2023/01/10 14:09:28;;;;;;;4.93;1.90;;;;;;;;;;5076176;28;20472;-70
2023/01/10 14:11:59;;;;;;;4.70;2.10;;;;;;;;;;5071652;28;20906;-70
2023/01/10 14:14:27;;;;;;;5.37;1.57;;;;;;;;;;5072192;28;20483;-70
2023/01/10 14:16:56;;;;;;;9.03;2.07;;;;;;;;;;5074166;28;20470;-70
2023/01/10 14:19:25;;;;;;;4.70;2.20;;;;;;;;;;5074066;28;20475;-70
2023/01/10 14:21:53;;;;;;;4.30;1.70;;;;;;;;;;5073725;28;21003;-70
2023/01/10 14:24:24;;;;;;;4.70;1.97;;;;;;;;;;5091443;28;20486;-70
2023/01/10 14:26:52;;;;;;;3.53;1.73;;;;;;;;;;5094597;28;20512;-70
2023/01/10 14:29:21;;;;;;;4.07;2.40;;;;;;;;;;5093227;28;20475;-71
2023/01/10 14:31:51;;;;;;;5.93;1.70;;;;;;;;;;5094131;28;20966;-70
2023/01/10 14:34:21;;;;;;;4.73;1.70;;;;;;;;;;5094307;28;20454;-69
2023/01/10 14:36:50;;;;;;;4.27;2.20;;;;;;;;;;5094365;28;20818;-70
2023/01/10 14:39:17;;;;;;;3.03;1.80;;;;;;;;;;5094112;28;20487;-70
2023/01/10 14:41:45;;;;;;;9.93;2.27;;;;;;;;;;5094678;28;20458;-70
2023/01/10 14:44:16;;;;;;;3.60;1.90;;;;;;;;;;5093784;28;20850;-70
2023/01/10 14:46:48;;;;;;;5.00;1.67;;;;;;;;;;5094163;28;20458;-70
2023/01/10 14:49:20;;;;;;;4.80;1.40;;;;;;;;;;5093828;28;20975;-71
2023/01/10 14:51:49;;;;;;;1.70;1.20;;;;;;;;;;5093922;28;20970;-71
2023/01/10 14:54:17;;;;;;;3.97;1.50;;;;;;;;;;5093275;28;20455;-70
2023/01/10 14:56:45;;;;;;;2.47;1.60;;;;;;;;;;5093438;28;20455;-70
2023/01/10 14:59:34;;;;;;;4.77;2.50;;;;;;;;;;5092600;28;20475;-70
2023/01/10 15:02:04;;;;;;;4.17;2.63;;;;;;;;;;5089841;28;20549;-70
2023/01/10 15:04:33;;;;;;;8.87;2.83;;;;;;;;;;5093412;28;20457;-70
2023/01/10 15:07:01;;;;;;;7.20;2.10;;;;;;;;;;5093589;28;20453;-70
2023/01/10 15:09:29;;;;;;;3.00;1.90;;;;;;;;;;5093948;28;20912;-70
2023/01/10 15:11:58;;;;;;;5.80;2.07;;;;;;;;;;5092832;28;20935;-70
2023/01/10 15:14:25;;;;;;;4.73;1.90;;;;;;;;;;5093315;28;20599;-70